Data for 08/06/2017

Time Sea-Level Adjusted Pressure Absolute Pressure Temperature Relative Humidity Dew Point   
(mb) (inHg) (mb) (inHg) (C) (F) (%) (C) (F)
00:05 1022 30.18 852 25.16 14.4 57.9 57 6.1 43
00:10 1022 30.18 852 25.16 14.3 57.7 58 6.1 43.1
00:15 1022 30.18 852 25.16 14.2 57.5 59 6.2 43.2
00:20 1022 30.18 852 25.16 14.1 57.3 59 6.2 43.1
00:25 1022 30.18 852 25.16 14 57.3 59 6.1 43
00:30 1022 30.18 852 25.16 14 57.2 59 6.2 43.2
00:35 1022 30.18 852 25.16 13.9 57 59 6.2 43.1
00:40 1022 30.18 852 25.16 13.9 57.1 59 6.2 43.1
00:45 1023 30.21 852 25.16 13.9 56.9 60 6.2 43.2
00:50 1023 30.21 852 25.16 13.7 56.6 60 6.2 43.1
00:55 1022 30.18 852 25.16 13.6 56.5 60 6.1 43
01:00 1023 30.21 852 25.16 13.5 56.4 61 6.1 43
01:05 1023 30.21 852 25.16 13.4 56 62 6.2 43.1
01:10 1023 30.21 852 25.16 13.2 55.7 62 6.1 43
01:15 1023 30.21 852 25.16 13.1 55.5 63 6.1 43
01:20 1023 30.21 852 25.16 12.9 55.3 63 6.1 43
01:25 1023 30.21 852 25.16 12.8 55.1 63 6.1 42.9
01:30 1023 30.21 852 25.16 12.8 55 63 6 42.8
01:35 1023 30.21 852 25.16 12.8 55.1 63 6 42.8
01:40 1023 30.21 852 25.16 12.8 55.1 62 5.9 42.5
01:45 1022 30.18 852 25.16 12.8 55.1 63 6 42.7
01:50 1022 30.18 852 25.16 12.8 55.1 61 5.6 42.1
01:55 1022 30.18 852 25.16 13 55.3 61 5.7 42.3
02:00 1022 30.18 852 25.16 13 55.3 61 5.7 42.2
02:05 1022 30.18 852 25.16 13 55.3 62 5.9 42.5
02:10 1023 30.21 852 25.16 12.8 55 62 5.8 42.5
02:15 1023 30.21 852 25.16 12.7 54.8 63 5.8 42.5
02:20 1022 30.18 852 25.16 12.5 54.6 63 5.8 42.4
02:25 1023 30.21 852 25.16 12.4 54.3 64 5.9 42.6
02:30 1023 30.21 852 25.16 12.2 54 65 5.8 42.4
02:35 1023 30.21 852 25.16 12.2 53.9 65 5.8 42.4
02:40 1023 30.21 852 25.16 12.2 53.9 65 5.8 42.4
02:45 1023 30.21 852 25.16 12.1 53.9 65 5.8 42.5
02:50 1023 30.21 852 25.16 12.1 53.8 65 5.8 42.4
02:55 1022 30.18 852 25.16 12.1 53.7 65 5.8 42.5
03:00 1023 30.21 852 25.16 12 53.6 65 5.8 42.4
03:05 1023 30.21 852 25.16 12 53.6 65 5.8 42.4
03:10 1023 30.21 852 25.16 12 53.6 66 5.8 42.4
03:15 1023 30.21 852 25.16 11.9 53.4 66 5.8 42.4
03:20 1023 30.21 852 25.16 11.7 53.1 68 6 42.7
03:25 1022 30.18 852 25.16 11.3 52.3 69 5.9 42.6
03:30 1022 30.18 852 25.16 10.8 51.5 71 5.7 42.3
03:35 1022 30.18 852 25.16 10.5 51 71 5.6 42.1
03:40 1022 30.18 852 25.16 10.5 50.8 72 5.6 42.1
03:45 1023 30.21 852 25.16 10.4 50.6 73 5.7 42.3
03:50 1022 30.18 852 25.16 10.4 50.8 72 5.7 42.2
03:55 1022 30.18 852 25.16 10.6 51.1 72 5.8 42.4
04:00 1023 30.21 852 25.16 10.5 50.8 73 5.8 42.4
04:05 1022 30.18 852 25.16 10.3 50.6 73 5.7 42.3
04:10 1022 30.18 852 25.16 10.2 50.4 73 5.7 42.2
04:15 1023 30.21 852 25.16 10.3 50.5 72 5.5 41.9
04:20 1023 30.21 852 25.16 10.6 51 72 5.7 42.2
04:25 1022 30.18 852 25.16 10.5 50.8 72 5.7 42.3
04:30 1022 30.18 852 25.16 10.3 50.5 72 5.5 42
04:35 1022 30.18 852 25.16 10.3 50.6 73 5.6 42.1
04:40 1022 30.18 852 25.16 10.3 50.6 72 5.6 42
04:45 1022 30.18 852 25.16 10.4 50.7 72 5.6 42
04:50 1022 30.18 852 25.16 10.4 50.7 72 5.6 42
04:55 1022 30.18 852 25.16 10.4 50.7 72 5.6 42
05:00 1022 30.18 852 25.16 10.4 50.7 72 5.5 41.9
05:05 1022 30.18 852 25.16 10.3 50.6 72 5.5 41.9
05:10 1022 30.18 852 25.16 10.2 50.4 72 5.5 41.9
05:15 1022 30.18 852 25.16 10.1 50.2 73 5.4 41.8
05:20 1022 30.18 852 25.16 10.1 50.2 73 5.5 41.8
05:25 1023 30.21 852 25.16 10.1 50.2 73 5.5 42
05:30 1023 30.21 852 25.16 10 50 73 5.5 41.9
05:35 1023 30.21 852 25.16 9.8 49.6 74 5.5 41.8
05:40 1023 30.21 852 25.16 9.9 49.8 73 5.4 41.7
05:45 1023 30.21 852 25.16 9.8 49.6 75 5.5 41.9
05:50 1023 30.21 852 25.16 9.7 49.5 74 5.4 41.6
05:55 1023 30.21 852 25.16 9.6 49.2 76 5.5 41.9
06:00 1023 30.21 852 25.16 9.4 48.8 76 5.4 41.7
06:05 1023 30.21 852 25.16 9.3 48.7 76 5.4 41.6
06:10 1023 30.21 852 25.16 9.3 48.7 76 5.3 41.5
06:15 1023 30.21 852 25.16 9.3 48.8 76 5.3 41.6
06:20 1023 30.21 852 25.16 9.3 48.8 76 5.3 41.6
06:25 1023 30.21 852 25.16 9.2 48.6 77 5.4 41.6
06:30 1023 30.21 852 25.16 9.2 48.5 76 5.2 41.4
06:35 1023 30.21 852 25.16 9.4 48.8 76 5.3 41.6
06:40 1023 30.21 852 25.16 9.4 48.9 76 5.4 41.8
06:45 1023 30.21 852 25.16 9.4 48.9 76 5.4 41.7
06:50 1023 30.21 852 25.16 9.5 49.1 75 5.3 41.6
06:55 1023 30.21 852 25.16 9.7 49.4 75 5.5 41.9
07:00 1023 30.21 852 25.16 9.8 49.6 74 5.4 41.8
07:05 1023 30.21 852 25.16 9.9 49.8 74 5.5 41.9
07:10 1023 30.21 852 25.16 10.1 50.3 73 5.6 42
07:15 1023 30.21 852 25.16 10.3 50.6 73 5.7 42.2
07:20 1023 30.21 852 25.16 10.5 50.9 72 5.6 42.1
07:25 1023 30.21 852 25.16 10.7 51.3 71 5.7 42.3
07:30 1023 30.21 852 25.16 10.8 51.4 71 5.8 42.5
07:35 1023 30.21 853 25.19 10.9 51.6 71 6 42.8
07:40 1023 30.21 853 25.19 11 51.7 72 6 42.9
07:45 1023 30.21 853 25.19 10.9 51.6 72 6.1 43
07:50 1023 30.21 853 25.19 10.9 51.7 72 6.2 43.2
07:55 1023 30.21 853 25.19 11.1 52 72 6.3 43.3
08:00 1023 30.21 853 25.19 11.3 52.4 71 6.2 43.2
08:05 1023 30.21 853 25.19 11.5 52.7 71 6.5 43.7
08:10 1023 30.21 853 25.19 11.7 53.1 70 6.5 43.7
08:15 1023 30.21 853 25.19 11.9 53.5 68 6.3 43.4
08:20 1023 30.21 853 25.19 12.2 53.9 67 6.4 43.4
08:25 1023 30.21 853 25.19 12.8 55 65 6.4 43.5
08:30 1024 30.24 853 25.19 13.2 55.8 65 6.7 44.1
08:35 1024 30.24 853 25.19 13.6 56.4 62 6.5 43.7
08:40 1024 30.24 853 25.19 14.1 57.5 60 6.5 43.6
08:45 1024 30.24 853 25.19 14.5 58.2 58 6.4 43.5
08:50 1024 30.24 853 25.19 14.8 58.7 57 6.5 43.8
08:55 1024 30.24 853 25.19 15.2 59.4 56 6.5 43.7
09:00 1024 30.24 853 25.19 15.5 59.9 52 5.9 42.6
09:05 1024 30.24 853 25.19 15.9 60.6 52 6.2 43.2
09:10 1024 30.24 853 25.19 15.6 60.1 53 6.3 43.3
09:15 1024 30.24 853 25.19 15.2 59.3 52 5.6 42.1
09:20 1024 30.24 853 25.19 15.4 59.8 53 6 42.8
09:25 1024 30.24 853 25.19 15.7 60.2 50 5.4 41.8
09:30 1024 30.24 853 25.19 15.8 60.5 53 6.2 43.2
09:35 1024 30.24 853 25.19 16.4 61.4 48 5.6 42
09:40 1024 30.24 853 25.19 16.4 61.5 50 6.1 43
09:45 1024 30.24 853 25.19 16 60.8 53 6.5 43.7
09:50 1024 30.24 853 25.19 16.4 61.5 50 5.9 42.7
09:55 1024 30.24 853 25.19 17.1 62.8 48 6.2 43.2
10:00 1024 30.24 853 25.19 17.3 63.1 48 6.4 43.6
10:05 1024 30.24 853 25.19 16.9 62.4 52 7.1 44.7
10:10 1024 30.24 853 25.19 15.7 60.3 53 6.1 43
10:15 1024 30.24 853 25.19 15.8 60.4 52 6.2 43.1
10:20 1024 30.24 853 25.19 16.1 61 53 6.5 43.7
10:25 1024 30.24 853 25.19 16.4 61.5 50 6.1 42.9
10:30 1024 30.24 853 25.19 17 62.7 47 5.9 42.5
10:35 1024 30.24 853 25.19 17.5 63.5 47 6.2 43.1
10:40 1024 30.24 853 25.19 17.5 63.5 47 6.1 43
10:45 1024 30.24 853 25.19 17.2 63 49 6.5 43.8
10:50 1024 30.24 853 25.19 16.6 62 50 6.3 43.4
10:55 1024 30.24 853 25.19 17.2 63 47 6 42.8
11:00 1024 30.24 853 25.19 17.9 64.3 45 6 42.8
11:05 1024 30.24 853 25.19 18 64.4 44 5.8 42.4
11:10 1024 30.24 853 25.19 18.7 65.6 43 6 42.9
11:15 1024 30.24 853 25.19 19 66.1 43 6.1 43
11:20 1023 30.21 853 25.19 19.1 66.4 42 6 42.8
11:25 1023 30.21 853 25.19 19.5 67.2 42 6.4 43.5
11:30 1023 30.21 853 25.19 19.5 67 42 6.2 43.2
11:35 1023 30.21 853 25.19 19.6 67.2 41 6.2 43.1
11:40 1023 30.21 853 25.19 19.9 67.9 39 5.7 42.2
11:45 1023 30.21 853 25.19 20.2 68.3 39 6 42.9
11:50 1023 30.21 853 25.19 20.5 68.9 38 5.9 42.5
11:55 1023 30.21 853 25.19 20.1 68.3 40 6.4 43.4
12:00 1023 30.21 853 25.19 19.8 67.6 39 5.7 42.2
12:05 1023 30.21 853 25.19 19.5 67.1 41 5.9 42.7
12:10 1023 30.21 853 25.19 19.2 66.5 41 5.8 42.4
12:15 1023 30.21 852 25.16 19.9 67.7 40 6.1 43
12:20 1023 30.21 852 25.16 20.7 69.2 39 6.5 43.7
12:25 1023 30.21 853 25.19 21.1 70 38 6.3 43.3
12:30 1023 30.21 852 25.16 21.1 69.9 37 6.1 43
12:35 1023 30.21 852 25.16 21.1 70 38 6.3 43.4
12:40 1023 30.21 852 25.16 21.2 70.1 35 5.4 41.7
12:45 1023 30.21 852 25.16 21.6 70.9 34 5.2 41.4
12:50 1023 30.21 852 25.16 20.6 69.2 38 6 42.7
12:55 1023 30.21 852 25.16 19.9 67.8 38 5.3 41.5
13:00 1023 30.21 852 25.16 21.1 70 36 5.6 42.1
13:05 1023 30.21 852 25.16 20.4 68.7 39 6 42.8
13:10 1023 30.21 852 25.16 19.7 67.4 37 4.9 40.7
13:15 1023 30.21 852 25.16 21.2 70.2 33 4.5 40.2
13:20 1023 30.21 852 25.16 21.6 71 32 4.4 39.9
13:25 1023 30.21 852 25.16 21.4 70.5 35 5.4 41.7
13:30 1023 30.21 852 25.16 20.8 69.4 36 5.1 41.2
13:35 1023 30.21 852 25.16 20.7 69.3 35 4.9 40.9
13:40 1023 30.21 852 25.16 20.7 69.2 35 4.8 40.7
13:45 1023 30.21 852 25.16 21.2 70.2 33 4.7 40.4
13:50 1023 30.21 852 25.16 21.6 70.8 34 5.1 41.1
13:55 1023 30.21 852 25.16 21.8 71.2 34 5.4 41.7
14:00 1023 30.21 852 25.16 22.7 72.8 30 4.5 40.2
14:05 1023 30.21 852 25.16 22.4 72.3 31 4.7 40.5
14:10 1023 30.21 852 25.16 22.2 71.9 31 4.5 40.1
14:15 1023 30.21 852 25.16 21.7 71.1 32 4.7 40.4
14:20 1023 30.21 852 25.16 21.7 71 30 3.7 38.7
14:25 1023 30.21 852 25.16 22.5 72.5 28 3.1 37.6
14:30 1023 30.21 852 25.16 21.8 71.3 28 2.9 37.3
14:35 1023 30.21 852 25.16 22.4 72.3 29 3.5 38.3
14:40 1023 30.21 852 25.16 23.1 73.5 26 2.9 37.2
14:45 1023 30.21 852 25.16 23.5 74.3 27 3.6 38.5
14:50 1023 30.21 852 25.16 23.3 74 28 4.1 39.4
14:55 1023 30.21 852 25.16 23.6 74.4 27 3.7 38.7
15:00 1023 30.21 852 25.16 24.3 75.7 26 3.8 38.9
15:05 1023 30.21 852 25.16 23.2 73.7 28 3.6 38.5
15:10 1023 30.21 852 25.16 23.3 73.9 26 3 37.5
15:15 1023 30.21 852 25.16 23.3 74 27 3.6 38.4
15:20 1023 30.21 852 25.16 24.1 75.3 26 3.5 38.4
15:25 1023 30.21 852 25.16 24.4 75.9 25 3.3 37.9
15:30 1023 30.21 852 25.16 24 75.2 26 3.4 38.2
15:35 1023 30.21 852 25.16 23.9 75 26 3.7 38.6
15:40 1023 30.21 852 25.16 24.2 75.5 25 3 37.4
15:45 1023 30.21 852 25.16 24 75.1 26 3.4 38.2
15:50 1023 30.21 852 25.16 24 75.2 25 3.1 37.5
15:55 1022 30.18 852 25.16 23.2 73.7 27 3.4 38.1
16:00 1022 30.18 852 25.16 23.4 74 25 2.5 36.5
16:05 1022 30.18 852 25.16 23.9 74.9 25 3 37.5
16:10 1022 30.18 852 25.16 23.9 74.9 25 3.1 37.6
16:15 1022 30.18 852 25.16 23.2 73.8 26 2.8 37.1
16:20 1022 30.18 852 25.16 24.2 75.5 26 3.5 38.4
16:25 1022 30.18 852 25.16 24.4 75.9 24 2.9 37.2
16:30 1022 30.18 852 25.16 24.4 75.8 25 3.3 37.9
16:35 1022 30.18 852 25.16 23.9 74.9 26 3.2 37.7
16:40 1022 30.18 851 25.13 24.2 75.6 25 2.9 37.2
16:45 1022 30.18 851 25.13 24 75.1 26 3.6 38.5
16:50 1022 30.18 851 25.13 24.1 75.4 25 3.1 37.6
16:55 1022 30.18 851 25.13 24.3 75.7 25 3.2 37.8
17:00 1022 30.18 851 25.13 24.1 75.4 25 3.1 37.5
17:05 1022 30.18 851 25.13 24 75.1 25 3 37.3
17:10 1022 30.18 851 25.13 24.1 75.3 26 3.4 38.1
17:15 1022 30.18 851 25.13 24.2 75.5 25 3 37.4
17:20 1022 30.18 851 25.13 23.6 74.4 26 3 37.3
17:25 1022 30.18 851 25.13 24 75.2 25 2.8 37.1
17:30 1022 30.18 851 25.13 24.9 76.9 23 2.6 36.7
17:35 1022 30.18 851 25.13 25.1 77.3 23 3.1 37.5
17:40 1022 30.18 851 25.13 24.4 76 24 2.8 37
17:45 1022 30.18 851 25.13 24.3 75.7 24 2.6 36.7
17:50 1022 30.18 851 25.13 24.6 76.3 24 2.7 36.9
17:55 1022 30.18 851 25.13 24.9 76.9 23 2.8 37.1
18:00 1022 30.18 851 25.13 24.7 76.5 23 2.7 36.8
18:05 1022 30.18 851 25.13 23.6 74.6 24 2.3 36.2
18:10 1022 30.18 851 25.13 23.5 74.2 26 2.9 37.2
18:15 1022 30.18 851 25.13 22.8 73 26 2.4 36.3
18:20 1022 30.18 851 25.13 22.4 72.4 26 2.2 35.9
18:25 1022 30.18 851 25.13 23 73.3 25 1.8 35.3
18:30 1022 30.18 851 25.13 22.8 73.1 25 2.2 36
18:35 1022 30.18 851 25.13 22.9 73.3 24 1.6 35
18:40 1022 30.18 851 25.13 22.6 72.8 26 2.2 35.9
18:45 1022 30.18 851 25.13 22.6 72.7 25 1.9 35.5
18:50 1022 30.18 851 25.13 22.4 72.3 26 2.3 36.2
18:55 1022 30.18 851 25.13 22.2 72 26 1.9 35.4
19:00 1022 30.18 851 25.13 22.2 71.9 26 1.8 35.2
19:05 1022 30.18 851 25.13 22.2 71.9 26 2.1 35.8
19:10 1022 30.18 851 25.13 22.1 71.8 27 2.3 36.1
19:15 1022 30.18 851 25.13 22 71.6 27 2.2 35.9
19:20 1022 30.18 851 25.13 21.9 71.3 27 2.1 35.8
19:25 1022 30.18 851 25.13 21.8 71.3 27 2.1 35.9
19:30 1022 30.18 851 25.13 21.7 71.1 27 2 35.6
19:35 1022 30.18 851 25.13 21.7 71.1 28 2.4 36.4
19:40 1022 30.18 851 25.13 21.5 70.8 28 2.4 36.3
19:45 1022 30.18 852 25.16 21.3 70.3 28 2.3 36.1
19:50 1022 30.18 852 25.16 21.1 69.9 29 2.5 36.4
19:55 1022 30.18 852 25.16 21 69.7 29 2.4 36.3
20:00 1022 30.18 852 25.16 20.9 69.6 29 2.2 36
20:05 1022 30.18 852 25.16 20.9 69.5 29 2.5 36.5
20:10 1022 30.18 852 25.16 20.8 69.4 30 2.6 36.6
20:15 1022 30.18 852 25.16 20.6 69.1 30 2.6 36.7
20:20 1022 30.18 852 25.16 20.4 68.8 30 2.6 36.8
20:25 1022 30.18 852 25.16 20.3 68.5 31 2.6 36.6
20:30 1022 30.18 852 25.16 20.1 68.2 31 2.8 37
20:35 1022 30.18 852 25.16 20 67.9 31 2.7 36.8
20:40 1023 30.21 852 25.16 19.8 67.7 32 2.7 36.9
20:45 1023 30.21 852 25.16 19.6 67.3 32 2.6 36.8
20:50 1023 30.21 852 25.16 19.3 66.8 33 2.8 37.1
20:55 1023 30.21 852 25.16 19.1 66.3 33 2.7 36.9
21:00 1023 30.21 852 25.16 19 66.1 33 2.6 36.7
21:05 1023 30.21 852 25.16 18.8 65.9 34 2.6 36.7
21:10 1023 30.21 852 25.16 18.7 65.7 34 2.7 36.8
21:15 1023 30.21 852 25.16 18.6 65.4 34 2.6 36.7
21:20 1023 30.21 852 25.16 18.5 65.2 34 2.5 36.6
21:25 1023 30.21 852 25.16 18.4 65.1 35 2.6 36.7
21:30 1023 30.21 852 25.16 18.3 64.9 35 2.6 36.7
21:35 1023 30.21 852 25.16 18.3 64.9 35 2.6 36.7
21:40 1023 30.21 852 25.16 18.1 64.6 35 2.7 36.9
21:45 1023 30.21 852 25.16 18 64.4 36 2.7 36.9
21:50 1023 30.21 852 25.16 18 64.3 35 2.5 36.6
21:55 1023 30.21 852 25.16 18 64.3 35 2.5 36.5
22:00 1023 30.21 852 25.16 18 64.3 36 2.7 36.9
22:05 1023 30.21 852 25.16 17.9 64.1 36 2.8 37
22:10 1023 30.21 852 25.16 17.8 64 37 2.8 37.1
22:15 1023 30.21 853 25.19 17.7 63.9 37 2.9 37.3
22:20 1023 30.21 853 25.19 17.6 63.7 38 3.1 37.5
22:25 1023 30.21 853 25.19 17.5 63.5 38 3 37.5
22:30 1023 30.21 853 25.19 17.4 63.3 38 3.1 37.6
22:35 1024 30.24 853 25.19 17.3 63.1 39 3.2 37.7
22:40 1024 30.24 853 25.19 17.2 62.9 39 3.3 37.9
22:45 1024 30.24 853 25.19 17.1 62.7 40 3.4 38.1
22:50 1024 30.24 853 25.19 17 62.6 40 3.5 38.4
22:55 1024 30.24 853 25.19 16.9 62.5 41 3.7 38.6
23:00 1024 30.24 853 25.19 16.8 62.3 41 3.8 38.8
23:05 1024 30.24 853 25.19 16.8 62.2 42 3.9 39
23:10 1024 30.24 853 25.19 16.7 62.1 43 4 39.2
23:15 1024 30.24 853 25.19 16.6 61.9 43 4 39.2
23:20 1024 30.24 853 25.19 16.6 61.8 43 4.1 39.3
23:25 1024 30.24 853 25.19 16.6 61.8 43 4.1 39.4
23:30 1024 30.24 853 25.19 16.5 61.6 43 4.1 39.4
23:35 1024 30.24 853 25.19 16.4 61.4 44 4.1 39.5
23:40 1024 30.24 853 25.19 16.3 61.4 44 4.2 39.5
23:45 1024 30.24 853 25.19 16.2 61.2 45 4.2 39.6
23:50 1024 30.24 853 25.19 16.1 61 45 4.3 39.7
23:55 1024 30.24 853 25.19 16 60.8 46 4.4 39.8
24:00 1024 30.24 853 25.19 15.9 60.7 46 4.4 39.9